Time;durP1;ratioP1;P1;durP2;ratioP2;P2;SDS_P1;SDS_P2;PMS_P1;PMS_P2;Temp;Humidity;BMP_temperature;BMP_pressure;BME280_temperature;BME280_humidity;BME280_pressure;Samples;Min_cycle;Max_cycle;Signal;HPM_P1;HPM_P2
2021/04/24 00:01:00;;;;;;;15.05;11.02;;;8.40;76.90;;;;;;5113302;28;20385;-40
2021/04/24 00:03:27;;;;;;;20.95;11.02;;;8.40;77.20;;;;;;5113206;28;20309;-40
2021/04/24 00:05:54;;;;;;;15.70;11.43;;;8.30;77.50;;;;;;5112995;28;20646;-41
2021/04/24 00:08:22;;;;;;;16.15;12.30;;;8.20;77.70;;;;;;5113209;28;20237;-40
2021/04/24 00:10:50;;;;;;;12.15;10.95;;;8.20;78.00;;;;;;5113289;28;20237;-41
2021/04/24 00:13:17;;;;;;;15.40;10.98;;;8.20;78.30;;;;;;5113102;28;20210;-40
2021/04/24 00:15:45;;;;;;;16.85;11.68;;;8.10;78.50;;;;;;5113097;28;20304;-40
2021/04/24 00:18:13;;;;;;;16.27;12.57;;;8.10;78.80;;;;;;5113317;28;20566;-40
2021/04/24 00:20:41;;;;;;;15.02;11.15;;;8.10;79.10;;;;;;5113122;28;20214;-40
2021/04/24 00:23:08;;;;;;;16.63;12.13;;;8.00;79.30;;;;;;5112776;28;20213;-40
2021/04/24 00:25:37;;;;;;;14.73;10.45;;;8.00;79.60;;;;;;5112820;27;20213;-41
2021/04/24 00:28:04;;;;;;;13.75;10.40;;;8.00;79.90;;;;;;5113009;28;20201;-40
2021/04/24 00:30:31;;;;;;;18.25;12.13;;;7.90;80.20;;;;;;5113240;28;20224;-40
2021/04/24 00:32:58;;;;;;;18.67;12.07;;;7.90;80.40;;;;;;5113147;27;20277;-40
2021/04/24 00:35:26;;;;;;;19.38;12.57;;;7.90;80.60;;;;;;5112897;28;20300;-41
2021/04/24 00:37:53;;;;;;;16.95;11.68;;;7.90;81.00;;;;;;5112883;28;20230;-41
2021/04/24 00:40:20;;;;;;;15.95;11.82;;;7.90;81.40;;;;;;5112881;28;20205;-41
2021/04/24 00:42:49;;;;;;;15.23;11.10;;;7.80;81.70;;;;;;5112734;28;20311;-41
2021/04/24 00:45:19;;;;;;;13.13;11.10;;;7.80;81.90;;;;;;5112858;28;20266;-40
2021/04/24 00:47:46;;;;;;;15.27;12.82;;;7.80;82.10;;;;;;5112708;28;20657;-41
2021/04/24 00:50:17;;;;;;;19.52;12.32;;;7.80;82.40;;;;;;5112820;27;20209;-40
2021/04/24 00:52:44;;;;;;;17.30;11.77;;;7.70;82.70;;;;;;5112609;28;20270;-41
2021/04/24 00:55:12;;;;;;;15.80;11.52;;;7.70;83.00;;;;;;5112618;28;20206;-40
2021/04/24 00:57:40;;;;;;;18.67;11.32;;;7.60;83.50;;;;;;5112872;28;20226;-40
2021/04/24 01:00:12;;;;;;;15.55;11.13;;;7.60;83.50;;;;;;5112551;28;20210;-40
2021/04/24 01:02:39;;;;;;;14.48;12.20;;;7.60;83.90;;;;;;5112634;28;20293;-41
2021/04/24 01:05:08;;;;;;;15.60;11.68;;;7.50;84.10;;;;;;5093649;28;20334;-40
2021/04/24 01:07:35;;;;;;;16.65;12.25;;;7.50;84.30;;;;;;5091950;28;20207;-41
2021/04/24 01:10:05;;;;;;;15.32;12.00;;;7.40;84.70;;;;;;5092354;28;20250;-40
2021/04/24 01:12:32;;;;;;;13.85;11.32;;;7.30;85.30;;;;;;5092317;28;20217;-40
2021/04/24 01:14:59;;;;;;;19.90;11.43;;;7.30;85.70;;;;;;5093018;28;20203;-40
2021/04/24 01:17:27;;;;;;;16.92;12.10;;;7.20;85.90;;;;;;5112353;28;20602;-40
2021/04/24 01:19:54;;;;;;;16.92;11.35;;;7.20;86.10;;;;;;5112393;28;20449;-40
2021/04/24 01:22:22;;;;;;;12.07;10.23;;;7.30;86.30;;;;;;5112399;28;20209;-40
2021/04/24 01:24:50;;;;;;;16.05;12.05;;;7.30;86.20;;;;;;5112111;28;20301;-40
2021/04/24 01:27:17;;;;;;;17.42;11.48;;;7.30;86.20;;;;;;5112470;28;20542;-43
2021/04/24 01:29:44;;;;;;;19.77;12.05;;;7.40;86.30;;;;;;5112381;28;20297;-43
2021/04/24 01:32:11;;;;;;;17.52;11.55;;;7.30;86.40;;;;;;5112226;28;20238;-42
2021/04/24 01:34:38;;;;;;;15.43;10.90;;;7.30;86.60;;;;;;5112300;28;20214;-41
2021/04/24 01:37:05;;;;;;;16.50;11.77;;;7.30;86.80;;;;;;5112103;28;20221;-43
2021/04/24 01:39:33;;;;;;;15.95;12.02;;;7.20;87.00;;;;;;5112446;28;20210;-42
2021/04/24 01:42:00;;;;;;;15.75;11.57;;;7.20;87.40;;;;;;5112408;28;20213;-41
2021/04/24 01:44:28;;;;;;;15.02;11.68;;;7.20;87.60;;;;;;5112246;28;20210;-41
2021/04/24 01:46:55;;;;;;;17.38;11.52;;;7.20;87.80;;;;;;5112325;28;20255;-41
2021/04/24 01:49:22;;;;;;;19.35;12.05;;;7.20;87.80;;;;;;5112083;28;20214;-39
2021/04/24 01:51:49;;;;;;;16.83;11.57;;;7.20;87.90;;;;;;5112323;28;20305;-39
2021/04/24 01:54:17;;;;;;;15.30;12.00;;;7.20;88.30;;;;;;5112100;28;20300;-41
2021/04/24 01:56:47;;;;;;;14.63;11.15;;;7.10;88.40;;;;;;5112204;28;20305;-41
2021/04/24 01:59:15;;;;;;;20.00;11.82;;;7.10;88.60;;;;;;5112239;28;20206;-41
2021/04/24 02:01:46;;;;;;;12.60;9.77;;;7.10;88.80;;;;;;5112130;28;20636;-41
2021/04/24 02:04:13;;;;;;;13.02;10.35;;;7.10;89.00;;;;;;5111971;28;20763;-41
2021/04/24 02:06:40;;;;;;;15.45;10.73;;;7.10;89.30;;;;;;5112142;28;20202;-40
2021/04/24 02:09:09;;;;;;;16.75;10.77;;;7.10;89.50;;;;;;5112162;28;20234;-40
2021/04/24 02:11:36;;;;;;;16.35;10.40;;;7.10;89.80;;;;;;5112073;28;20389;-40
2021/04/24 02:14:05;;;;;;;13.32;9.95;;;7.10;89.90;;;;;;5115029;28;20300;-40
2021/04/24 02:16:32;;;;;;;17.88;10.77;;;7.10;90.00;;;;;;5115392;28;20288;-40
2021/04/24 02:19:00;;;;;;;20.05;10.25;;;7.10;90.00;;;;;;5115809;28;20567;-40
2021/04/24 02:21:27;;;;;;;15.63;10.27;;;7.00;90.40;;;;;;5115758;28;20618;-40
2021/04/24 02:23:57;;;;;;;11.60;9.98;;;7.00;90.10;;;;;;5115672;28;20202;-40
2021/04/24 02:26:24;;;;;;;14.45;11.20;;;7.00;90.20;;;;;;5115408;28;20233;-40
2021/04/24 02:28:50;;;;;;;13.07;10.05;;;6.90;90.30;;;;;;5115330;28;20205;-40
2021/04/24 02:31:18;;;;;;;15.88;9.88;;;6.90;90.40;;;;;;5115319;28;20205;-40
2021/04/24 02:33:45;;;;;;;11.00;9.45;;;6.90;90.50;;;;;;5115518;28;20206;-40
2021/04/24 02:36:13;;;;;;;13.82;10.20;;;6.90;90.60;;;;;;5115147;28;20597;-39
2021/04/24 02:38:48;;;;;;;11.57;9.55;;;6.90;90.60;;;;;;5115194;28;20321;-39
2021/04/24 02:41:15;;;;;;;13.55;8.90;;;6.90;90.70;;;;;;5115148;28;20209;-39
2021/04/24 02:43:43;;;;;;;9.55;8.65;;;6.90;90.70;;;;;;5115014;27;20209;-39
2021/04/24 02:46:14;;;;;;;10.38;8.95;;;6.90;90.80;;;;;;5115175;28;20218;-39
2021/04/24 02:48:41;;;;;;;15.32;9.25;;;6.90;90.90;;;;;;5115253;28;20226;-39
2021/04/24 02:51:08;;;;;;;13.82;9.38;;;6.90;90.90;;;;;;5114966;28;20237;-44
2021/04/24 02:53:35;;;;;;;11.73;8.57;;;6.90;91.00;;;;;;5114912;28;20300;-39
2021/04/24 02:56:03;;;;;;;12.27;9.60;;;6.80;91.10;;;;;;5114778;28;20241;-39
2021/04/24 02:58:30;;;;;;;13.07;9.23;;;6.80;91.20;;;;;;5114922;28;20652;-39
2021/04/24 03:00:56;;;;;;;10.68;8.45;;;6.80;91.30;;;;;;5114905;28;20304;-39
2021/04/24 03:03:23;;;;;;;12.75;8.88;;;6.70;91.40;;;;;;5114792;27;20292;-38
2021/04/24 03:05:54;;;;;;;15.20;8.70;;;6.70;91.50;;;;;;5114526;28;20337;-38
2021/04/24 03:08:21;;;;;;;14.75;8.88;;;6.70;91.50;;;;;;5114654;28;20198;-38
2021/04/24 03:10:48;;;;;;;9.27;8.27;;;6.70;91.50;;;;;;5114523;28;20229;-37
2021/04/24 03:13:15;;;;;;;11.60;8.25;;;6.60;91.60;;;;;;5114695;28;20259;-38
2021/04/24 03:15:42;;;;;;;9.13;8.15;;;6.60;91.70;;;;;;5114536;28;20205;-38
2021/04/24 03:18:10;;;;;;;11.38;8.40;;;6.60;91.80;;;;;;5114430;28;20236;-39
2021/04/24 03:20:37;;;;;;;14.45;8.88;;;6.50;92.10;;;;;;5114447;28;20740;-38
2021/04/24 03:23:08;;;;;;;12.00;8.48;;;6.60;91.90;;;;;;5114205;28;20208;-38
2021/04/24 03:25:35;;;;;;;14.20;9.38;;;6.60;91.80;;;;;;5114501;28;20296;-38
2021/04/24 03:28:01;;;;;;;13.15;9.05;;;6.60;91.80;;;;;;5114425;28;20229;-38
2021/04/24 03:30:28;;;;;;;12.38;8.65;;;6.60;91.90;;;;;;5114377;28;20233;-38
2021/04/24 03:32:56;;;;;;;13.07;9.05;;;6.60;91.90;;;;;;5114171;28;20759;-38
2021/04/24 03:35:23;;;;;;;11.52;8.25;;;6.50;91.90;;;;;;5113957;28;20206;-38
2021/04/24 03:37:50;;;;;;;12.13;7.43;;;6.40;92.00;;;;;;5113845;28;20305;-38
2021/04/24 03:40:18;;;;;;;11.93;9.00;;;6.40;92.50;;;;;;5114168;28;20206;-39
2021/04/24 03:42:45;;;;;;;12.57;8.25;;;6.30;92.20;;;;;;5114083;28;20213;-41
2021/04/24 03:45:19;;;;;;;13.23;8.60;;;6.30;92.30;;;;;;5113972;28;20205;-39
2021/04/24 03:47:47;;;;;;;9.88;7.70;;;6.30;92.40;;;;;;5113987;28;20206;-40
2021/04/24 03:50:14;;;;;;;12.80;8.85;;;6.30;92.30;;;;;;5113925;27;20767;-40
2021/04/24 03:52:42;;;;;;;13.52;8.15;;;6.40;92.30;;;;;;5113675;28;20296;-41
2021/04/24 03:55:11;;;;;;;10.68;8.60;;;6.30;92.40;;;;;;5113936;28;20631;-41
2021/04/24 03:57:39;;;;;;;14.13;8.75;;;6.30;92.40;;;;;;5113696;28;20309;-41
2021/04/24 04:00:07;;;;;;;15.68;8.50;;;6.30;92.50;;;;;;5114181;28;20249;-41
2021/04/24 04:02:48;;;;;;;9.98;7.78;;;6.20;92.70;;;;;;5113175;28;20210;-39
2021/04/24 04:05:16;;;;;;;15.07;8.73;;;6.10;93.00;;;;;;5112914;28;20284;-41
2021/04/24 04:07:43;;;;;;;12.32;8.13;;;6.10;92.90;;;;;;5113040;28;20204;-39
2021/04/24 04:10:12;;;;;;;12.50;8.85;;;6.10;92.90;;;;;;5113264;28;20237;-40
2021/04/24 04:12:40;;;;;;;11.93;7.78;;;6.10;93.20;;;;;;5113328;28;20609;-40
2021/04/24 04:15:08;;;;;;;10.50;7.63;;;6.10;92.90;;;;;;5113132;28;20601;-40
2021/04/24 04:17:37;;;;;;;12.30;8.68;;;6.10;93.00;;;;;;5113241;28;20313;-39
2021/04/24 04:20:06;;;;;;;10.60;7.38;;;6.10;93.00;;;;;;5113089;28;20327;-40
2021/04/24 04:22:33;;;;;;;12.60;8.98;;;6.20;93.10;;;;;;5113139;28;20285;-40
2021/04/24 04:25:00;;;;;;;11.30;9.02;;;6.20;93.00;;;;;;5112919;28;20304;-39
2021/04/24 04:27:27;;;;;;;13.98;8.88;;;6.20;93.00;;;;;;5112894;28;20321;-40
2021/04/24 04:29:55;;;;;;;11.45;8.27;;;6.20;92.90;;;;;;5112778;28;20273;-41
2021/04/24 04:32:22;;;;;;;14.65;8.68;;;6.20;92.90;;;;;;5112963;28;20297;-44
2021/04/24 04:34:49;;;;;;;12.32;8.82;;;6.10;93.00;;;;;;5112454;28;20304;-41
2021/04/24 04:37:16;;;;;;;11.52;7.90;;;6.10;93.10;;;;;;5112357;28;20746;-39
2021/04/24 04:39:43;;;;;;;13.10;8.25;;;6.10;93.10;;;;;;5112901;28;20249;-39
2021/04/24 04:42:10;;;;;;;11.32;9.07;;;6.10;93.20;;;;;;5112837;28;20241;-39
2021/04/24 04:44:37;;;;;;;12.18;9.32;;;6.20;93.10;;;;;;5112832;28;20237;-39
2021/04/24 04:47:05;;;;;;;15.63;8.32;;;6.20;93.00;;;;;;5112740;28;20240;-39
2021/04/24 04:49:32;;;;;;;14.35;8.35;;;6.20;93.00;;;;;;5112670;28;20673;-40
2021/04/24 04:51:59;;;;;;;12.88;9.10;;;6.20;93.00;;;;;;5112726;28;20210;-39
2021/04/24 04:54:26;;;;;;;15.60;8.98;;;6.20;93.00;;;;;;5112869;28;20382;-39
2021/04/24 04:56:53;;;;;;;14.38;9.13;;;6.20;93.00;;;;;;5112583;28;20247;-39
2021/04/24 04:59:20;;;;;;;13.65;9.65;;;6.20;93.10;;;;;;5112874;28;20288;-39
2021/04/24 05:01:46;;;;;;;11.00;9.15;;;6.40;93.00;;;;;;5112630;28;20612;-40
2021/04/24 05:04:32;;;;;;;18.95;10.60;;;6.50;92.80;;;;;;5112458;28;20206;-39
2021/04/24 05:06:59;;;;;;;12.63;9.60;;;6.50;92.70;;;;;;5112583;28;20239;-40
2021/04/24 05:09:26;;;;;;;15.20;10.27;;;6.60;92.60;;;;;;5112299;28;20688;-39
2021/04/24 05:11:53;;;;;;;12.02;8.90;;;6.60;92.70;;;;;;5112705;28;20293;-39
2021/04/24 05:14:20;;;;;;;13.35;10.68;;;6.60;92.70;;;;;;5112612;28;20233;-40
2021/04/24 05:16:47;;;;;;;16.15;10.25;;;6.60;92.70;;;;;;5112373;28;20212;-40
2021/04/24 05:19:14;;;;;;;19.40;10.23;;;6.60;92.60;;;;;;5112626;28;20213;-40
2021/04/24 05:21:42;;;;;;;12.18;10.25;;;6.60;92.60;;;;;;5112345;28;20216;-39
2021/04/24 05:24:10;;;;;;;15.63;9.20;;;6.80;92.50;;;;;;5112434;28;20300;-39
2021/04/24 05:26:37;;;;;;;13.10;10.85;;;6.90;92.40;;;;;;5112340;28;20206;-41
2021/04/24 05:29:04;;;;;;;11.48;9.77;;;7.00;92.10;;;;;;5112307;28;20708;-45
2021/04/24 05:31:32;;;;;;;18.17;11.75;;;7.10;91.90;;;;;;5112408;28;20209;-41
2021/04/24 05:33:59;;;;;;;10.65;8.15;;;7.20;91.70;;;;;;5112335;28;20228;-41
2021/04/24 05:36:27;;;;;;;11.40;9.13;;;7.30;91.60;;;;;;5112090;28;20230;-41
2021/04/24 05:38:55;;;;;;;9.40;8.13;;;7.40;91.30;;;;;;5111992;28;20633;-41
2021/04/24 05:41:23;;;;;;;13.45;8.20;;;7.40;91.10;;;;;;5112165;28;20293;-41
2021/04/24 05:43:50;;;;;;;12.88;8.85;;;7.50;90.90;;;;;;5112381;28;20296;-41
2021/04/24 05:46:19;;;;;;;18.77;8.98;;;7.50;90.70;;;;;;5112544;28;20236;-42
2021/04/24 05:48:47;;;;;;;10.45;8.95;;;7.60;90.60;;;;;;5114741;28;20293;-42
2021/04/24 05:51:14;;;;;;;11.63;8.52;;;7.60;90.50;;;;;;5115620;28;20750;-41
2021/04/24 05:53:42;;;;;;;14.60;8.73;;;7.70;90.40;;;;;;5116209;28;20212;-43
2021/04/24 05:56:10;;;;;;;10.57;8.48;;;7.80;90.20;;;;;;5115949;28;20201;-41
2021/04/24 05:58:37;;;;;;;10.90;8.43;;;7.90;90.10;;;;;;5116029;28;20258;-43
2021/04/24 06:01:04;;;;;;;14.27;9.95;;;7.90;90.00;;;;;;5115991;28;20206;-39
2021/04/24 06:03:31;;;;;;;13.13;9.18;;;8.00;89.80;;;;;;5115761;28;20278;-40
2021/04/24 06:05:59;;;;;;;11.63;8.23;;;8.10;89.50;;;;;;5115466;28;20238;-39
2021/04/24 06:08:26;;;;;;;10.98;8.60;;;8.20;89.30;;;;;;5115853;28;20237;-39
2021/04/24 06:10:53;;;;;;;13.00;9.00;;;8.40;88.80;;;;;;5115776;28;20206;-39
2021/04/24 06:13:21;;;;;;;10.80;9.35;;;8.60;88.20;;;;;;5115647;28;20302;-41
2021/04/24 06:15:48;;;;;;;11.00;8.93;;;8.90;87.30;;;;;;5115435;28;20305;-38
2021/04/24 06:18:16;;;;;;;15.73;9.90;;;9.20;86.30;;;;;;5115169;28;20256;-38
2021/04/24 06:20:43;;;;;;;13.07;9.18;;;9.40;85.40;;;;;;5115559;28;20606;-38
2021/04/24 06:23:11;;;;;;;14.45;9.15;;;9.70;84.60;;;;;;5115340;28;20223;-38
2021/04/24 06:25:38;;;;;;;12.10;9.65;;;9.80;84.20;;;;;;5115689;28;20301;-38
2021/04/24 06:28:05;;;;;;;13.70;10.23;;;9.90;83.70;;;;;;5115227;28;20206;-38
2021/04/24 06:30:33;;;;;;;14.75;11.00;;;10.00;83.20;;;;;;5115210;28;20257;-38
2021/04/24 06:33:00;;;;;;;15.68;10.70;;;10.10;82.80;;;;;;5115078;28;20628;-38
2021/04/24 06:35:28;;;;;;;14.07;11.27;;;10.30;82.30;;;;;;5114924;28;20219;-38
2021/04/24 06:37:57;;;;;;;16.42;10.32;;;10.20;82.30;;;;;;5114750;28;20325;-38
2021/04/24 06:40:25;;;;;;;15.50;11.48;;;10.30;82.20;;;;;;5114739;28;20214;-37
2021/04/24 06:42:53;;;;;;;15.32;10.90;;;10.30;81.90;;;;;;5114628;28;20249;-38
2021/04/24 06:45:20;;;;;;;15.02;10.55;;;10.40;81.20;;;;;;5114677;28;20205;-38
2021/04/24 06:47:49;;;;;;;13.57;10.43;;;10.50;80.90;;;;;;5114880;28;20292;-38
2021/04/24 06:50:20;;;;;;;10.30;9.20;;;10.60;80.50;;;;;;5114919;28;20500;-40
2021/04/24 06:52:47;;;;;;;14.75;10.48;;;10.70;80.20;;;;;;5114429;28;20314;-40
2021/04/24 06:55:17;;;;;;;11.68;9.90;;;10.80;79.80;;;;;;5114541;28;20294;-40
2021/04/24 06:57:44;;;;;;;14.00;10.30;;;11.00;79.40;;;;;;5114325;28;20233;-41
2021/04/24 07:00:14;;;;;;;13.15;10.00;;;11.10;78.90;;;;;;5114347;28;20289;-41
2021/04/24 07:02:42;;;;;;;15.10;9.95;;;11.20;78.70;;;;;;5114431;28;20293;-42
2021/04/24 07:05:12;;;;;;;13.32;9.43;;;11.30;78.40;;;;;;5114173;28;20267;-41
2021/04/24 07:07:40;;;;;;;14.07;9.50;;;11.50;77.90;;;;;;5114158;27;20202;-41
2021/04/24 07:10:09;;;;;;;14.25;10.02;;;11.60;77.20;;;;;;5114297;28;20656;-41
2021/04/24 07:12:37;;;;;;;16.08;9.65;;;11.80;76.70;;;;;;5114544;28;20210;-40
2021/04/24 07:15:06;;;;;;;10.48;9.32;;;11.80;76.30;;;;;;5114189;28;20397;-39
2021/04/24 07:17:34;;;;;;;18.92;10.23;;;11.90;76.30;;;;;;5113800;28;20226;-40
2021/04/24 07:20:01;;;;;;;11.90;8.85;;;11.90;76.10;;;;;;5113896;28;20771;-41
2021/04/24 07:22:29;;;;;;;14.32;10.05;;;12.00;75.70;;;;;;5113919;28;20572;-41
2021/04/24 07:24:56;;;;;;;18.88;10.48;;;12.10;75.20;;;;;;5113867;28;20300;-40
2021/04/24 07:27:23;;;;;;;15.00;11.18;;;12.20;74.80;;;;;;5113946;28;20241;-42
2021/04/24 07:29:50;;;;;;;12.35;10.27;;;12.30;74.70;;;;;;5113818;28;20641;-40
2021/04/24 07:32:17;;;;;;;12.02;10.07;;;12.30;74.60;;;;;;5113933;28;20209;-41
2021/04/24 07:34:44;;;;;;;10.88;8.98;;;12.20;74.70;;;;;;5113966;28;20301;-40
2021/04/24 07:37:11;;;;;;;11.73;9.65;;;12.20;74.80;;;;;;5113648;28;20618;-40
2021/04/24 07:39:39;;;;;;;13.00;11.05;;;12.40;74.30;;;;;;5113743;28;20259;-40
2021/04/24 07:42:06;;;;;;;12.65;9.77;;;12.50;73.70;;;;;;5113863;28;20300;-40
2021/04/24 07:44:37;;;;;;;11.90;10.10;;;12.60;73.40;;;;;;5113775;28;20206;-40
2021/04/24 07:47:04;;;;;;;13.35;9.00;;;12.80;72.70;;;;;;5113117;28;20631;-40
2021/04/24 07:49:32;;;;;;;18.42;9.75;;;13.00;72.10;;;;;;5113489;28;20213;-40
2021/04/24 07:52:01;;;;;;;15.13;9.63;;;13.20;71.40;;;;;;5113395;28;20301;-40
2021/04/24 07:54:28;;;;;;;10.25;9.13;;;13.30;70.70;;;;;;5113366;28;20214;-40
2021/04/24 07:56:56;;;;;;;11.25;9.40;;;13.30;69.90;;;;;;5113385;28;20296;-41
2021/04/24 07:59:23;;;;;;;12.73;10.05;;;13.40;69.40;;;;;;5113139;28;20385;-41
2021/04/24 08:01:53;;;;;;;11.93;9.15;;;13.70;68.80;;;;;;5113223;28;20313;-40
2021/04/24 08:04:20;;;;;;;13.02;9.02;;;13.80;68.10;;;;;;5112921;28;20300;-41
2021/04/24 08:06:47;;;;;;;23.70;13.40;;;14.00;67.40;;;;;;5113101;28;20241;-40
2021/04/24 08:09:15;;;;;;;23.80;10.60;;;14.20;66.70;;;;;;5112969;28;20209;-40
2021/04/24 08:11:41;;;;;;;14.77;10.18;;;14.30;66.20;;;;;;5112551;28;20300;-40
2021/04/24 08:14:09;;;;;;;12.30;9.30;;;14.40;65.50;;;;;;5113164;28;20296;-40
2021/04/24 08:16:37;;;;;;;10.25;8.77;;;14.40;65.60;;;;;;5112730;28;20245;-40
2021/04/24 08:19:04;;;;;;;13.23;9.23;;;14.50;65.40;;;;;;5112772;28;20384;-41
2021/04/24 08:21:32;;;;;;;20.20;12.52;;;14.70;64.80;;;;;;5113180;28;20202;-40
2021/04/24 08:24:00;;;;;;;15.05;10.10;;;14.80;64.30;;;;;;5113008;28;20248;-40
2021/04/24 08:26:28;;;;;;;12.93;9.57;;;14.80;63.90;;;;;;5113022;28;20301;-43
2021/04/24 08:28:55;;;;;;;10.50;9.20;;;14.90;63.80;;;;;;5112841;28;20341;-40
2021/04/24 08:31:23;;;;;;;11.20;9.40;;;14.90;63.60;;;;;;5112809;28;20327;-40
2021/04/24 08:33:55;;;;;;;15.70;9.65;;;14.90;63.00;;;;;;5112536;28;20733;-40
2021/04/24 08:36:23;;;;;;;11.20;8.60;;;15.10;62.60;;;;;;5112565;28;20680;-40
2021/04/24 08:38:50;;;;;;;13.45;8.55;;;15.20;61.50;;;;;;5112575;28;20234;-41
2021/04/24 08:41:18;;;;;;;12.35;8.55;;;15.40;60.90;;;;;;5112537;28;20643;-41
2021/04/24 08:43:45;;;;;;;11.98;10.32;;;15.40;60.20;;;;;;5112558;28;20214;-41
2021/04/24 08:46:16;;;;;;;14.45;9.65;;;15.50;59.70;;;;;;5112357;28;20218;-41
2021/04/24 08:48:45;;;;;;;11.20;9.50;;;15.50;59.30;;;;;;5112380;28;20202;-41
2021/04/24 08:51:12;;;;;;;15.52;8.68;;;15.50;59.00;;;;;;5112334;28;20691;-40
2021/04/24 08:53:39;;;;;;;17.63;10.35;;;15.60;58.50;;;;;;5112096;28;20260;-40
2021/04/24 08:56:06;;;;;;;9.55;8.43;;;15.70;58.00;;;;;;5112426;28;20651;-41
2021/04/24 08:58:33;;;;;;;12.55;9.75;;;15.70;57.50;;;;;;5111777;28;20217;-41
2021/04/24 09:00:59;;;;;;;10.57;8.75;;;15.70;57.40;;;;;;5111917;28;20248;-40
2021/04/24 09:03:27;;;;;;;11.38;8.13;;;15.70;56.80;;;;;;5112049;28;20643;-40
2021/04/24 09:05:56;;;;;;;13.10;8.15;;;15.90;56.20;;;;;;5111839;28;20345;-40
2021/04/24 09:08:25;;;;;;;11.55;8.18;;;15.90;55.70;;;;;;5112190;28;20228;-41
2021/04/24 09:10:59;;;;;;;13.15;8.00;;;16.00;55.30;;;;;;5112450;28;20258;-40
2021/04/24 09:13:28;;;;;;;12.18;9.00;;;16.20;54.80;;;;;;5111892;28;20248;-42
2021/04/24 09:15:55;;;;;;;11.95;7.82;;;16.30;54.10;;;;;;5112269;28;20206;-42
2021/04/24 09:18:24;;;;;;;11.15;8.35;;;16.40;53.50;;;;;;5112279;28;20557;-41
2021/04/24 09:20:52;;;;;;;9.38;8.38;;;16.40;53.30;;;;;;5111957;28;20301;-41
2021/04/24 09:23:22;;;;;;;8.05;7.20;;;16.50;52.80;;;;;;5115960;28;20615;-41
2021/04/24 09:25:51;;;;;;;7.82;6.95;;;16.60;51.60;;;;;;5116211;28;20297;-40
2021/04/24 09:28:26;;;;;;;11.57;7.47;;;16.70;51.10;;;;;;5116579;28;20733;-42
2021/04/24 09:30:53;;;;;;;9.25;8.35;;;16.80;50.50;;;;;;5116304;28;20739;-40
2021/04/24 09:33:22;;;;;;;10.82;7.85;;;16.80;50.50;;;;;;5116305;28;20247;-40
2021/04/24 09:35:52;;;;;;;11.95;8.20;;;16.90;50.60;;;;;;5116041;28;20202;-40
2021/04/24 09:38:26;;;;;;;12.95;8.30;;;17.00;50.30;;;;;;5115927;28;20792;-40
2021/04/24 09:41:08;;;;;;;11.70;8.73;;;17.00;49.80;;;;;;5115814;28;20212;-41
2021/04/24 09:43:55;;;;;;;9.70;8.60;;;16.90;49.70;;;;;;5116061;28;20329;-42
2021/04/24 09:46:23;;;;;;;10.38;8.00;;;16.70;49.60;;;;;;5116074;28;20208;-41
2021/04/24 09:49:06;;;;;;;14.45;8.85;;;16.70;50.20;;;;;;5115981;28;20292;-41
2021/04/24 09:51:39;;;;;;;14.10;8.60;;;16.70;49.60;;;;;;5116047;28;20216;-40
2021/04/24 09:54:08;;;;;;;11.48;8.40;;;16.70;49.60;;;;;;5115677;28;20207;-41
2021/04/24 09:56:35;;;;;;;12.07;8.68;;;16.60;49.50;;;;;;5115542;28;20286;-41
2021/04/24 09:59:05;;;;;;;10.10;8.43;;;16.60;49.40;;;;;;5115364;28;20252;-41
2021/04/24 10:01:33;;;;;;;8.88;8.05;;;16.80;49.20;;;;;;5115687;28;20290;-41
2021/04/24 10:04:02;;;;;;;11.70;7.90;;;17.00;49.20;;;;;;5115486;28;20300;-41
2021/04/24 10:06:31;;;;;;;8.82;8.02;;;17.10;48.80;;;;;;5115604;28;20317;-41
2021/04/24 10:09:20;;;;;;;8.95;8.05;;;17.20;48.50;;;;;;5115619;28;20355;-41
2021/04/24 10:12:03;;;;;;;10.38;7.80;;;17.20;48.20;;;;;;5115499;28;20633;-41
2021/04/24 10:14:33;;;;;;;9.73;7.53;;;17.30;47.80;;;;;;5112568;28;20217;-41
2021/04/24 10:17:01;;;;;;;8.90;6.38;;;17.30;47.70;;;;;;5115101;28;20678;-41
2021/04/24 10:19:30;;;;;;;9.82;7.60;;;17.30;47.40;;;;;;5115197;28;20225;-41
2021/04/24 10:21:58;;;;;;;13.25;8.10;;;17.40;47.20;;;;;;5115136;28;20249;-41
2021/04/24 10:24:27;;;;;;;12.57;8.38;;;17.50;47.00;;;;;;5115054;28;20248;-42
2021/04/24 10:26:55;;;;;;;10.68;8.70;;;17.50;47.60;;;;;;5115049;28;20260;-41
2021/04/24 10:29:22;;;;;;;11.73;8.23;;;17.60;47.20;;;;;;5114552;28;20636;-41
2021/04/24 10:31:50;;;;;;;15.88;8.77;;;17.70;47.20;;;;;;5114713;28;20297;-42
2021/04/24 10:34:17;;;;;;;14.05;9.23;;;17.70;47.00;;;;;;5114029;28;20210;-41
2021/04/24 10:36:45;;;;;;;20.38;9.68;;;17.70;47.00;;;;;;5113504;28;20264;-41
2021/04/24 10:39:18;;;;;;;10.40;8.73;;;17.80;46.90;;;;;;5104881;28;20321;-42
2021/04/24 10:41:55;;;;;;;11.52;8.77;;;17.80;46.80;;;;;;5094058;28;20388;-42
2021/04/24 10:44:24;;;;;;;11.25;9.23;;;17.90;46.70;;;;;;5094181;28;20262;-42
2021/04/24 10:46:53;;;;;;;16.63;9.82;;;17.90;46.50;;;;;;5094714;28;20233;-42
2021/04/24 10:49:23;;;;;;;11.63;8.13;;;18.00;46.30;;;;;;5094127;28;20203;-41
2021/04/24 10:51:52;;;;;;;12.95;8.90;;;18.00;46.10;;;;;;5094011;28;20699;-42
2021/04/24 10:54:19;;;;;;;11.20;8.07;;;18.00;45.90;;;;;;5094057;28;20217;-43
2021/04/24 10:56:47;;;;;;;12.02;8.68;;;18.10;45.80;;;;;;5094023;28;20207;-42
2021/04/24 10:59:19;;;;;;;12.95;9.45;;;18.10;45.50;;;;;;5093879;28;20272;-43
2021/04/24 11:02:02;;;;;;;13.18;9.43;;;18.10;45.70;;;;;;5093955;28;20307;-43
2021/04/24 11:04:48;;;;;;;9.20;8.30;;;18.10;45.40;;;;;;5091803;28;20313;-43
2021/04/24 11:07:26;;;;;;;10.82;8.18;;;18.00;45.30;;;;;;5093463;28;20632;-41
2021/04/24 11:10:25;;;;;;;11.63;8.95;;;17.80;45.40;;;;;;5093471;28;20242;-42
2021/04/24 11:13:00;;;;;;;9.35;7.82;;;17.70;44.70;;;;;;5093644;28;20202;-41
2021/04/24 11:15:28;;;;;;;13.32;9.07;;;17.60;44.70;;;;;;5093572;28;20297;-41
2021/04/24 11:17:57;;;;;;;11.45;8.45;;;17.60;44.80;;;;;;5093339;28;20238;-41
2021/04/24 11:20:50;;;;;;;9.15;7.97;;;17.60;44.30;;;;;;5093325;28;20267;-41
2021/04/24 11:24:00;;;;;;;11.10;8.43;;;17.50;43.70;;;;;;5093478;28;20207;-41
2021/04/24 11:26:49;;;;;;;9.57;7.97;;;17.60;44.20;;;;;;5072928;28;20671;-41
2021/04/24 11:29:20;;;;;;;9.05;7.30;;;17.80;44.00;;;;;;5093349;28;20210;-42
2021/04/24 11:32:08;;;;;;;9.90;7.97;;;18.00;43.50;;;;;;5093166;28;20306;-41
2021/04/24 11:34:44;;;;;;;7.85;6.57;;;18.10;42.70;;;;;;5093286;28;20269;-41
2021/04/24 11:37:28;;;;;;;7.55;6.32;;;18.20;42.50;;;;;;5093087;28;20634;-42
2021/04/24 11:40:28;;;;;;;8.45;5.80;;;18.40;40.40;;;;;;5093012;28;20318;-41
2021/04/24 11:43:26;;;;;;;6.97;6.32;;;18.40;39.70;;;;;;5092855;28;20584;-40
2021/04/24 11:46:03;;;;;;;7.30;6.55;;;18.30;39.40;;;;;;5092123;28;20289;-41
2021/04/24 11:49:02;;;;;;;8.00;6.55;;;18.10;39.90;;;;;;5092900;28;20316;-41
2021/04/24 11:51:45;;;;;;;7.13;6.43;;;18.20;39.20;;;;;;5092860;28;20210;-41
2021/04/24 11:54:18;;;;;;;8.43;6.30;;;18.30;38.50;;;;;;5090692;28;20596;-42
2021/04/24 11:56:46;;;;;;;9.73;7.63;;;18.40;38.90;;;;;;5092611;28;20297;-42
2021/04/24 11:59:19;;;;;;;10.70;7.10;;;18.50;38.50;;;;;;5092582;28;20232;-41
2021/04/24 12:01:52;;;;;;;8.82;7.93;;;18.50;38.80;;;;;;5092587;28;20210;-41
2021/04/24 12:04:25;;;;;;;8.20;7.40;;;18.60;38.80;;;;;;5092272;28;20206;-42
2021/04/24 12:07:00;;;;;;;9.80;7.20;;;18.60;38.40;;;;;;5092625;28;20219;-42
2021/04/24 12:09:27;;;;;;;9.00;7.20;;;18.60;38.10;;;;;;5092713;28;20720;-42
2021/04/24 12:11:57;;;;;;;13.25;8.93;;;18.70;38.10;;;;;;5092244;28;20238;-44
2021/04/24 12:14:25;;;;;;;13.70;8.88;;;18.80;38.40;;;;;;5092453;28;20215;-42
2021/04/24 12:16:54;;;;;;;14.38;8.82;;;18.90;38.50;;;;;;5092494;28;20551;-42
2021/04/24 12:19:39;;;;;;;12.95;8.35;;;19.00;38.50;;;;;;5092014;28;20330;-42
2021/04/24 12:22:15;;;;;;;8.90;8.00;;;19.10;38.40;;;;;;5092356;28;20255;-42
2021/04/24 12:24:57;;;;;;;12.02;8.02;;;19.10;38.50;;;;;;5092058;28;20252;-43
2021/04/24 12:27:34;;;;;;;12.60;9.02;;;19.20;38.50;;;;;;5092162;28;20760;-42
2021/04/24 12:30:04;;;;;;;11.80;8.98;;;19.10;38.80;;;;;;5091721;28;20230;-42
2021/04/24 12:32:37;;;;;;;12.05;9.57;;;19.10;39.00;;;;;;5092001;28;20216;-44
2021/04/24 12:35:07;;;;;;;10.90;8.60;;;19.20;39.00;;;;;;5092008;28;20285;-44
2021/04/24 12:37:34;;;;;;;9.10;7.05;;;19.20;39.00;;;;;;5092443;28;20593;-42
2021/04/24 12:40:03;;;;;;;9.63;7.50;;;19.30;39.00;;;;;;5092188;28;20269;-42
2021/04/24 12:42:30;;;;;;;8.32;7.50;;;19.30;39.50;;;;;;5092066;28;20218;-43
2021/04/24 12:44:57;;;;;;;9.18;8.27;;;19.20;38.90;;;;;;5092265;28;20206;-42
2021/04/24 12:47:25;;;;;;;10.82;8.98;;;19.20;38.80;;;;;;5092080;28;20310;-43
2021/04/24 12:49:54;;;;;;;10.63;8.18;;;19.20;38.70;;;;;;5092180;28;20202;-41
2021/04/24 12:52:21;;;;;;;9.60;8.15;;;19.20;38.70;;;;;;5091927;28;20657;-42